Time;durP1;ratioP1;P1;durP2;ratioP2;P2;SDS_P1;SDS_P2;PMS_P1;PMS_P2;Temp;Humidity;BMP_temperature;BMP_pressure;BME280_temperature;BME280_humidity;BME280_pressure;Samples;Min_cycle;Max_cycle;Signal;HPM_P1;HPM_P2
2022/10/27 00:01:18;;;;;;;3.33;1.10;;;;;;;15.15;89.84;102178.34;5013216;28;96756;-30
2022/10/27 00:03:43;;;;;;;3.00;1.52;;;;;;;15.12;89.65;102169.47;5012784;28;99506;-31
2022/10/27 00:06:08;;;;;;;4.78;1.83;;;;;;;15.13;89.90;102172.09;5012685;28;106869;-31
2022/10/27 00:08:34;;;;;;;5.47;1.88;;;;;;;15.10;90.43;102175.00;5013380;28;96473;-30
2022/10/27 00:11:03;;;;;;;3.42;2.00;;;;;;;15.07;90.46;102175.19;5011650;28;96915;-30
2022/10/27 00:13:29;;;;;;;3.78;1.77;;;;;;;15.05;90.05;102178.00;5011356;28;101118;-32
2022/10/27 00:16:00;;;;;;;4.80;2.05;;;;;;;15.07;90.61;102183.38;5012937;28;97943;-31
2022/10/27 00:18:26;;;;;;;4.72;1.92;;;;;;;15.03;90.25;102179.94;5013083;28;96622;-30
2022/10/27 00:21:03;;;;;;;5.68;1.80;;;;;;;15.03;90.36;102179.06;5013051;28;96752;-31
2022/10/27 00:23:30;;;;;;;8.73;2.45;;;;;;;15.01;90.43;102179.16;5010537;28;101629;-32
2022/10/27 00:25:56;;;;;;;5.50;2.00;;;;;;;14.98;90.54;102178.47;5010659;28;101183;-32
2022/10/27 00:28:21;;;;;;;4.50;1.67;;;;;;;14.99;90.65;102185.66;5011340;28;96706;-30
2022/10/27 00:30:47;;;;;;;3.47;1.85;;;;;;;14.96;90.62;102185.84;5011661;28;96900;-32
2022/10/27 00:33:12;;;;;;;7.65;2.50;;;;;;;14.91;90.66;102185.25;5012661;28;98144;-31
2022/10/27 00:35:38;;;;;;;4.38;2.05;;;;;;;14.88;90.71;102183.59;5012686;28;97324;-32
2022/10/27 00:38:03;;;;;;;4.30;2.13;;;;;;;14.85;90.77;102192.84;5012516;28;96430;-31
2022/10/27 00:40:34;;;;;;;3.03;1.80;;;;;;;14.83;90.75;102192.03;5012833;28;96838;-30
2022/10/27 00:42:59;;;;;;;3.70;1.85;;;;;;;14.79;90.72;102190.44;5011057;28;100915;-32
2022/10/27 00:45:25;;;;;;;4.88;1.98;;;;;;;14.78;90.58;102198.75;5011731;28;116520;-30
2022/10/27 00:47:50;;;;;;;4.20;1.92;;;;;;;14.75;90.59;102194.31;5012018;28;96424;-31
2022/10/27 00:50:21;;;;;;;5.30;2.20;;;;;;;14.71;90.53;102191.88;5011389;28;109898;-30
2022/10/27 00:52:52;;;;;;;5.60;2.40;;;;;;;14.70;90.81;102203.72;5011797;28;97829;-31
2022/10/27 00:55:23;;;;;;;4.60;2.23;;;;;;;14.67;90.92;102203.91;5010817;28;100677;-30
2022/10/27 00:57:52;;;;;;;3.10;1.98;;;;;;;14.65;90.80;102199.41;5010903;28;96748;-30
2022/10/27 01:00:18;;;;;;;3.13;1.90;;;;;;;14.62;90.97;102193.28;5010851;28;96873;-30
2022/10/27 01:02:43;;;;;;;4.88;1.83;;;;;;;14.62;90.84;102196.88;5012165;28;97891;-30
2022/10/27 01:05:28;;;;;;;7.50;2.33;;;;;;;14.60;90.76;102203.38;5012533;28;97847;-30
2022/10/27 01:07:56;;;;;;;5.72;2.22;;;;;;;14.57;90.55;102192.66;5010887;28;96641;-30
2022/10/27 01:10:22;;;;;;;4.15;2.00;;;;;;;14.56;91.09;102201.78;5010589;28;96850;-31
2022/10/27 01:12:48;;;;;;;5.40;2.10;;;;;;;14.55;91.01;102202.78;5010046;28;101464;-32
2022/10/27 01:15:15;;;;;;;3.95;1.80;;;;;;;14.55;90.85;102194.59;5011711;28;97420;-30
2022/10/27 01:17:55;;;;;;;3.75;2.03;;;;;;;14.57;90.88;102201.72;5011446;28;96675;-30
2022/10/27 01:20:45;;;;;;;5.80;2.40;;;;;;;14.58;90.89;102208.03;5012313;28;96673;-31
2022/10/27 01:23:25;;;;;;;7.20;2.10;;;;;;;14.57;90.80;102201.72;5011553;28;99551;-30
2022/10/27 01:25:59;;;;;;;6.13;2.03;;;;;;;14.57;91.16;102193.53;5011639;28;105290;-31
2022/10/27 01:28:35;;;;;;;5.45;2.00;;;;;;;14.57;91.10;102203.56;5011725;28;96703;-31
2022/10/27 01:31:08;;;;;;;5.80;2.15;;;;;;;14.57;90.88;102204.44;5010934;28;96823;-31
2022/10/27 01:33:50;;;;;;;6.35;2.45;;;;;;;14.55;91.22;102195.47;5011608;28;99556;-30
2022/10/27 01:36:39;;;;;;;3.25;1.75;;;;;;;14.58;90.99;102210.75;5010136;28;100912;-30
2022/10/27 01:39:29;;;;;;;4.07;1.80;;;;;;;14.56;90.91;102205.41;5012555;28;97103;-31
2022/10/27 01:42:03;;;;;;;8.57;2.38;;;;;;;14.57;90.91;102203.56;5014011;28;97146;-32
2022/10/27 01:44:39;;;;;;;2.35;1.48;;;;;;;14.55;91.00;102200.03;5015358;28;97463;-31
2022/10/27 01:47:06;;;;;;;3.45;1.90;;;;;;;14.54;90.91;102193.72;5013351;28;101498;-31
2022/10/27 01:49:37;;;;;;;5.50;2.15;;;;;;;14.51;91.13;102193.84;5013101;28;96708;-30
2022/10/27 01:52:23;;;;;;;5.68;2.08;;;;;;;14.53;91.27;102191.03;5014872;28;96787;-30
2022/10/27 01:54:49;;;;;;;5.57;1.70;;;;;;;14.52;91.08;102189.28;5014610;28;99260;-31
2022/10/27 01:57:31;;;;;;;6.85;1.85;;;;;;;14.50;91.10;102183.03;5015223;28;97799;-30
2022/10/27 02:00:02;;;;;;;4.45;2.00;;;;;;;14.49;91.36;102184.88;5013762;28;96808;-30
2022/10/27 02:02:45;;;;;;;5.72;2.28;;;;;;;14.51;91.60;102184.78;5013682;28;96931;-30
2022/10/27 02:05:42;;;;;;;7.30;2.05;;;;;;;14.49;91.66;102194.88;5013095;28;101136;-30
2022/10/27 02:08:38;;;;;;;4.20;2.47;;;;;;;14.45;92.07;102184.16;5013415;28;101139;-31
2022/10/27 02:11:06;;;;;;;4.40;1.88;;;;;;;14.45;92.14;102175.97;5014963;28;96637;-30
2022/10/27 02:13:35;;;;;;;6.32;2.08;;;;;;;14.43;92.46;102171.59;5013482;28;96918;-31
2022/10/27 02:16:07;;;;;;;7.45;2.50;;;;;;;14.45;92.71;102172.38;5012940;28;100889;-30
2022/10/27 02:18:38;;;;;;;7.05;2.47;;;;;;;14.47;92.91;102175.00;5013226;28;101119;-30
2022/10/27 02:21:06;;;;;;;4.70;1.80;;;;;;;14.45;92.77;102175.97;5013371;28;96751;-30
2022/10/27 02:23:33;;;;;;;3.90;1.80;;;;;;;14.44;93.07;102171.50;5013624;28;96956;-30
2022/10/27 02:26:21;;;;;;;3.97;2.00;;;;;;;14.47;92.82;102162.28;5012950;28;100877;-31
2022/10/27 02:28:52;;;;;;;8.68;1.90;;;;;;;14.49;92.90;102173.97;5014814;28;97325;-32
2022/10/27 02:31:23;;;;;;;3.80;1.65;;;;;;;14.53;92.70;102175.53;5012742;28;96877;-30
2022/10/27 02:33:50;;;;;;;7.30;1.92;;;;;;;14.51;92.43;102168.41;5014716;28;96601;-31
2022/10/27 02:36:16;;;;;;;4.93;1.85;;;;;;;14.51;91.90;102154.78;5014272;28;97905;-30
2022/10/27 02:38:41;;;;;;;4.80;1.85;;;;;;;14.55;92.49;102165.47;5012932;28;100685;-30
2022/10/27 02:41:06;;;;;;;4.88;1.75;;;;;;;14.56;92.05;102167.25;5013684;28;112294;-31
2022/10/27 02:43:32;;;;;;;6.07;2.60;;;;;;;14.54;92.41;102161.00;5014285;28;104536;-31
2022/10/27 02:45:57;;;;;;;4.88;1.92;;;;;;;14.52;92.05;102156.56;5014175;28;97861;-31
2022/10/27 02:48:22;;;;;;;2.85;1.67;;;;;;;14.53;92.37;102153.72;5013334;28;115676;-31
2022/10/27 02:50:48;;;;;;;3.00;1.40;;;;;;;14.52;92.19;102149.25;5013699;28;96893;-29
2022/10/27 02:53:13;;;;;;;4.03;1.85;;;;;;;14.55;91.99;102148.22;5013361;28;109508;-30
2022/10/27 02:55:38;;;;;;;4.25;1.63;;;;;;;14.52;92.35;102148.38;5012836;28;118444;-31
2022/10/27 02:58:03;;;;;;;4.35;1.83;;;;;;;14.49;92.23;102146.72;5013979;28;97971;-30
2022/10/27 03:00:29;;;;;;;4.15;1.63;;;;;;;14.50;92.26;102143.00;5013584;28;103127;-30
2022/10/27 03:02:54;;;;;;;6.05;1.45;;;;;;;14.50;92.41;102145.72;5014180;28;96750;-30
2022/10/27 03:05:19;;;;;;;7.10;2.15;;;;;;;14.49;92.44;102146.72;5013405;28;114168;-31
2022/10/27 03:07:45;;;;;;;8.90;2.28;;;;;;;14.49;92.19;102151.25;5013697;28;99976;-31
2022/10/27 03:10:10;;;;;;;3.80;1.90;;;;;;;14.47;92.34;102145.00;5013527;28;107254;-30
2022/10/27 03:12:35;;;;;;;8.27;2.30;;;;;;;14.48;92.27;102149.50;5014047;28;96817;-30
2022/10/27 03:15:01;;;;;;;3.80;2.00;;;;;;;14.47;92.50;102145.91;5013721;28;98007;-30
2022/10/27 03:17:26;;;;;;;3.78;1.63;;;;;;;14.47;92.40;102139.56;5013771;28;97347;-30
2022/10/27 03:19:51;;;;;;;5.93;1.80;;;;;;;14.48;92.54;102144.06;5013042;28;96617;-31
2022/10/27 03:22:17;;;;;;;3.15;1.75;;;;;;;14.46;92.40;102141.41;5012981;28;115981;-31
2022/10/27 03:24:42;;;;;;;5.43;1.77;;;;;;;14.43;92.78;102134.28;5012835;28;118911;-30
2022/10/27 03:27:07;;;;;;;5.75;1.42;;;;;;;14.47;92.99;102145.00;5013460;28;100578;-31
2022/10/27 03:29:33;;;;;;;3.50;1.60;;;;;;;14.47;92.79;102136.84;5012189;28;96620;-30
2022/10/27 03:31:58;;;;;;;3.67;1.48;;;;;;;14.47;92.74;102139.56;5013562;28;96897;-31
2022/10/27 03:34:23;;;;;;;4.10;1.73;;;;;;;14.47;92.46;102140.47;5013617;28;97933;-31
2022/10/27 03:36:48;;;;;;;3.40;1.60;;;;;;;14.46;92.54;102141.41;5013209;28;115610;-30
2022/10/27 03:39:14;;;;;;;4.05;2.03;;;;;;;14.47;92.33;102148.66;5013554;28;96580;-31
2022/10/27 03:41:39;;;;;;;5.20;2.00;;;;;;;14.44;92.55;102146.06;5012782;28;112049;-30
2022/10/27 03:44:04;;;;;;;2.55;1.27;;;;;;;14.43;92.55;102145.19;5012605;28;98813;-31
2022/10/27 03:46:30;;;;;;;3.40;1.70;;;;;;;14.48;92.51;102152.25;5013432;28;97322;-30
2022/10/27 03:48:55;;;;;;;5.53;1.70;;;;;;;14.48;92.14;102149.50;5012796;28;106184;-30
2022/10/27 03:51:20;;;;;;;5.20;1.92;;;;;;;14.46;92.30;102152.31;5012478;28;96812;-31
2022/10/27 03:53:46;;;;;;;4.60;1.80;;;;;;;14.47;92.43;102153.19;5013275;28;97451;-30
2022/10/27 03:56:12;;;;;;;9.07;2.05;;;;;;;14.45;92.53;102161.47;5012484;28;104670;-30
2022/10/27 03:58:38;;;;;;;9.35;2.17;;;;;;;14.43;92.54;102158.81;5011761;28;96756;-30
2022/10/27 04:01:05;;;;;;;4.18;1.70;;;;;;;14.45;92.53;102159.63;5012712;28;96876;-30
2022/10/27 04:03:30;;;;;;;10.77;2.08;;;;;;;14.48;92.36;102164.03;5011554;28;100816;-30
2022/10/27 04:05:56;;;;;;;6.50;2.10;;;;;;;14.47;92.38;102166.81;5012931;28;96613;-31
2022/10/27 04:08:21;;;;;;;5.97;2.15;;;;;;;14.45;92.41;102166.94;5012446;28;96520;-30
2022/10/27 04:10:46;;;;;;;7.45;1.88;;;;;;;14.45;92.62;102166.94;5012035;28;117589;-31
2022/10/27 04:13:12;;;;;;;5.95;2.05;;;;;;;14.45;92.55;102166.94;5012271;28;119410;-30
2022/10/27 04:15:37;;;;;;;4.20;1.50;;;;;;;14.45;92.15;102169.66;5012485;28;98728;-31
2022/10/27 04:18:03;;;;;;;2.55;1.55;;;;;;;14.44;92.15;102168.78;5012945;28;96591;-31
2022/10/27 04:20:28;;;;;;;6.07;2.63;;;;;;;14.45;92.08;102184.16;5012913;28;96759;-30
2022/10/27 04:22:55;;;;;;;4.10;1.60;;;;;;;14.43;92.08;102179.78;5012885;28;97976;-30
2022/10/27 04:25:21;;;;;;;9.07;2.08;;;;;;;14.42;92.14;102180.75;5011208;28;100918;-30
2022/10/27 04:27:46;;;;;;;9.23;2.90;;;;;;;14.41;91.96;102177.13;5012854;28;96699;-31
2022/10/27 04:30:12;;;;;;;23.80;5.38;;;;;;;14.41;92.04;102173.50;5012025;28;114301;-31
2022/10/27 04:32:37;;;;;;;19.88;5.25;;;;;;;14.40;91.95;102178.09;5011905;28;99340;-30
2022/10/27 04:35:04;;;;;;;29.65;6.57;;;;;;;14.38;92.16;102174.56;5012504;28;97364;-30
2022/10/27 04:37:29;;;;;;;15.98;5.07;;;;;;;14.37;91.98;102175.56;5011052;28;96684;-30
2022/10/27 04:39:54;;;;;;;12.25;3.20;;;;;;;14.36;92.01;102173.78;5012152;28;104179;-30
2022/10/27 04:42:19;;;;;;;8.00;3.45;;;;;;;14.35;92.25;102179.31;5012476;28;97860;-30
2022/10/27 04:44:46;;;;;;;6.65;2.58;;;;;;;14.35;92.20;102176.56;5012068;28;99256;-30
2022/10/27 04:47:11;;;;;;;10.23;2.35;;;;;;;14.35;92.45;102171.13;5011048;28;96631;-29
2022/10/27 04:49:36;;;;;;;8.88;3.42;;;;;;;14.38;92.06;102166.38;5012400;28;96764;-30
2022/10/27 04:52:02;;;;;;;4.30;2.92;;;;;;;14.39;91.91;102162.69;5011842;28;99585;-30
2022/10/27 04:54:28;;;;;;;10.55;3.95;;;;;;;14.38;91.76;102160.06;5012065;28;97327;-30
2022/10/27 04:56:53;;;;;;;6.50;2.60;;;;;;;14.38;91.70;102166.38;5011897;28;96757;-30
2022/10/27 04:59:18;;;;;;;9.07;3.70;;;;;;;14.37;92.04;102169.19;5012224;28;96834;-30
2022/10/27 05:01:44;;;;;;;18.15;5.50;;;;;;;14.37;91.30;102159.19;5012251;28;97894;-31
2022/10/27 05:04:09;;;;;;;12.50;3.95;;;;;;;14.38;91.56;102163.66;5012335;28;97396;-30
2022/10/27 05:06:34;;;;;;;9.88;3.63;;;;;;;14.38;91.63;102168.25;5012293;28;96981;-31
2022/10/27 05:09:00;;;;;;;8.63;3.08;;;;;;;14.39;91.13;102159.97;5012275;28;96836;-31
2022/10/27 05:11:25;;;;;;;7.40;2.45;;;;;;;14.41;91.35;102162.59;5011610;28;99303;-31
2022/10/27 05:13:50;;;;;;;15.98;3.72;;;;;;;14.40;91.14;102156.28;5011803;28;114220;-30
2022/10/27 05:16:16;;;;;;;11.75;3.67;;;;;;;14.40;90.74;102149.97;5011709;28;101043;-30
2022/10/27 05:18:42;;;;;;;9.52;3.20;;;;;;;14.40;90.90;102149.97;5010685;28;96889;-31
2022/10/27 05:21:07;;;;;;;9.10;2.65;;;;;;;14.42;90.52;102156.22;5011490;28;97966;-31
2022/10/27 05:23:32;;;;;;;6.18;2.42;;;;;;;14.40;90.65;102156.28;5011979;28;97238;-30
2022/10/27 05:25:58;;;;;;;7.43;1.88;;;;;;;14.40;90.50;102147.22;5010409;28;96745;-30
2022/10/27 05:28:23;;;;;;;4.47;1.80;;;;;;;14.40;90.49;102149.97;5011923;28;96818;-29
2022/10/27 05:30:49;;;;;;;3.92;1.95;;;;;;;14.37;90.40;102145.56;5012211;28;97358;-30
2022/10/27 05:33:14;;;;;;;3.55;1.58;;;;;;;14.37;90.25;102147.38;5011828;28;98172;-32
2022/10/27 05:35:40;;;;;;;7.57;2.03;;;;;;;14.37;90.36;102152.84;5011971;28;96582;-30
2022/10/27 05:38:05;;;;;;;3.78;1.60;;;;;;;14.35;90.40;102139.31;5011993;28;98400;-32
2022/10/27 05:40:33;;;;;;;3.88;1.27;;;;;;;14.39;90.52;102148.19;5011499;28;99399;-30
2022/10/27 05:43:00;;;;;;;2.72;1.25;;;;;;;14.40;90.25;102134.47;5011679;28;97375;-31
2022/10/27 05:45:26;;;;;;;1.92;0.98;;;;;;;14.42;90.18;102139.84;5009770;28;97062;-30
2022/10/27 05:47:59;;;;;;;4.95;1.40;;;;;;;14.39;90.00;102129.97;5010179;28;96847;-31
2022/10/27 05:50:26;;;;;;;4.03;1.27;;;;;;;14.41;89.91;102133.50;5011238;28;97957;-30
2022/10/27 05:52:52;;;;;;;3.50;1.67;;;;;;;14.40;89.91;102134.47;5009749;28;100825;-30
2022/10/27 05:55:17;;;;;;;1.73;1.30;;;;;;;14.43;89.92;102136.16;5011633;28;96497;-30
2022/10/27 05:57:50;;;;;;;2.30;1.13;;;;;;;14.43;89.64;102137.03;5011093;28;104203;-30
2022/10/27 06:00:16;;;;;;;4.40;1.38;;;;;;;14.44;89.77;102137.88;5011533;28;97974;-30
2022/10/27 06:02:41;;;;;;;6.70;1.80;;;;;;;14.39;89.74;102127.25;5011771;28;97856;-30
2022/10/27 06:05:06;;;;;;;5.70;1.70;;;;;;;14.40;89.93;102130.88;5011028;28;108054;-31
2022/10/27 06:07:32;;;;;;;3.95;1.75;;;;;;;14.38;89.47;102120.06;5011300;28;98116;-30
2022/10/27 06:09:57;;;;;;;3.45;1.80;;;;;;;14.35;89.81;102109.34;5010367;28;113119;-30
2022/10/27 06:12:22;;;;;;;5.22;1.50;;;;;;;14.33;89.77;102116.72;5011072;28;104793;-31
2022/10/27 06:14:48;;;;;;;5.07;1.48;;;;;;;14.34;89.67;102113.00;5010757;28;105092;-32
2022/10/27 06:17:13;;;;;;;2.58;1.40;;;;;;;14.31;89.60;102112.31;5010925;28;105947;-30
2022/10/27 06:19:38;;;;;;;3.47;1.52;;;;;;;14.31;89.47;102107.75;5011032;28;105672;-30
2022/10/27 06:22:03;;;;;;;11.57;1.83;;;;;;;14.35;89.59;102111.16;5011053;28;97743;-30
2022/10/27 06:24:29;;;;;;;2.33;1.25;;;;;;;14.33;89.45;102105.81;5013086;28;96512;-30
2022/10/27 06:26:54;;;;;;;4.55;1.60;;;;;;;14.32;89.44;102106.75;5014918;28;96737;-30
2022/10/27 06:29:19;;;;;;;3.47;1.40;;;;;;;14.32;89.63;102108.63;5014476;28;97876;-30
2022/10/27 06:31:45;;;;;;;4.95;1.88;;;;;;;14.28;89.65;102099.75;5013062;28;114645;-30
2022/10/27 06:34:10;;;;;;;3.38;1.67;;;;;;;14.24;89.83;102098.16;5013338;28;117457;-31
2022/10/27 06:36:35;;;;;;;4.18;1.58;;;;;;;14.21;89.98;102099.22;5014247;28;96873;-30
2022/10/27 06:39:00;;;;;;;4.93;2.00;;;;;;;14.17;90.14;102083.13;5013926;28;112218;-30
2022/10/27 06:41:26;;;;;;;5.72;1.60;;;;;;;14.17;89.67;102091.28;5013683;28;121512;-30
2022/10/27 06:43:51;;;;;;;8.43;2.15;;;;;;;14.15;90.00;102093.22;5014448;28;101639;-30
2022/10/27 06:46:16;;;;;;;9.13;1.95;;;;;;;14.11;89.81;102084.34;5013553;28;115665;-30
2022/10/27 06:48:42;;;;;;;5.43;1.95;;;;;;;14.11;90.16;102087.09;5013685;28;111587;-30
2022/10/27 06:51:07;;;;;;;4.78;1.85;;;;;;;14.06;90.37;102091.88;5013774;28;99154;-30
2022/10/27 06:53:32;;;;;;;3.53;1.92;;;;;;;14.07;90.31;102084.63;5014227;28;96814;-30
2022/10/27 06:55:58;;;;;;;4.13;1.65;;;;;;;14.06;90.33;102085.56;5013771;28;111544;-30
2022/10/27 06:58:23;;;;;;;4.10;1.90;;;;;;;14.02;90.36;102082.16;5013307;28;99268;-30
2022/10/27 07:00:48;;;;;;;6.40;1.90;;;;;;;14.02;90.22;102098.50;5013409;28;111707;-31
2022/10/27 07:03:14;;;;;;;5.18;1.92;;;;;;;14.00;90.33;102100.41;5014180;28;96624;-30
2022/10/27 07:05:39;;;;;;;5.38;1.60;;;;;;;14.00;90.31;102093.13;5013867;28;96787;-30
2022/10/27 07:08:05;;;;;;;11.32;2.05;;;;;;;14.02;90.48;102095.78;5013638;28;99795;-30
2022/10/27 07:10:30;;;;;;;7.20;1.73;;;;;;;14.01;90.39;102096.72;5013902;28;97774;-30
2022/10/27 07:12:58;;;;;;;4.60;1.33;;;;;;;13.99;90.41;102091.38;5014049;28;96482;-31
2022/10/27 07:15:25;;;;;;;5.45;1.58;;;;;;;13.98;90.23;102089.59;5014072;28;96816;-30
2022/10/27 07:17:59;;;;;;;4.22;1.50;;;;;;;13.99;90.24;102099.56;5012267;28;100742;-31
2022/10/27 07:20:25;;;;;;;5.95;2.17;;;;;;;13.98;90.23;102095.03;5012023;28;100955;-30
2022/10/27 07:22:50;;;;;;;3.28;1.70;;;;;;;13.97;90.29;102093.31;5013368;28;96833;-30
2022/10/27 07:25:16;;;;;;;4.72;1.95;;;;;;;14.00;89.91;102095.84;5013749;28;97187;-30
2022/10/27 07:27:41;;;;;;;7.63;2.15;;;;;;;14.02;89.94;102103.94;5013653;28;106268;-31
2022/10/27 07:30:07;;;;;;;4.75;1.55;;;;;;;14.02;89.48;102098.50;5013736;28;97436;-30
2022/10/27 07:32:32;;;;;;;3.10;1.70;;;;;;;14.06;89.65;102097.34;5013664;28;96765;-30
2022/10/27 07:34:57;;;;;;;5.68;1.50;;;;;;;14.06;89.54;102097.34;5012748;28;96839;-30
2022/10/27 07:37:23;;;;;;;2.83;1.50;;;;;;;14.10;89.43;102106.22;5013074;28;99141;-31
2022/10/27 07:39:48;;;;;;;6.68;1.23;;;;;;;14.13;89.24;102104.19;5013834;28;97877;-33
2022/10/27 07:42:14;;;;;;;2.60;1.42;;;;;;;14.16;89.25;102095.00;5013421;28;96743;-30
2022/10/27 07:44:40;;;;;;;4.53;1.65;;;;;;;14.19;88.58;102095.69;5012127;28;96845;-30
2022/10/27 07:47:05;;;;;;;4.30;1.10;;;;;;;14.26;88.54;102092.63;5013084;28;97254;-30
2022/10/27 07:49:30;;;;;;;1.73;1.00;;;;;;;14.30;88.25;102091.47;5012533;28;97860;-31
2022/10/27 07:51:56;;;;;;;3.55;1.17;;;;;;;14.34;88.33;102087.59;5012962;28;100802;-31
2022/10/27 07:54:21;;;;;;;2.05;0.98;;;;;;;14.38;87.62;102090.06;5012457;28;119689;-30
2022/10/27 07:56:47;;;;;;;4.72;0.98;;;;;;;14.44;87.51;102089.72;5012657;28;110017;-30
2022/10/27 07:59:13;;;;;;;2.60;0.80;;;;;;;14.48;87.12;102084.97;5013035;28;97282;-30
2022/10/27 08:01:38;;;;;;;1.17;0.93;;;;;;;14.57;86.67;102080.84;5013276;28;96693;-30
2022/10/27 08:04:03;;;;;;;3.72;1.10;;;;;;;14.63;86.33;102078.66;5012971;28;109211;-31
2022/10/27 08:06:29;;;;;;;1.20;0.88;;;;;;;14.75;85.61;102084.34;5013020;28;97941;-30
2022/10/27 08:08:54;;;;;;;2.05;0.90;;;;;;;14.83;85.03;102088.38;5012648;28;111635;-31
2022/10/27 08:11:21;;;;;;;5.07;1.23;;;;;;;14.89;84.90;102087.13;5012393;28;96643;-30
2022/10/27 08:13:47;;;;;;;3.65;1.40;;;;;;;14.96;84.76;102079.44;5011549;28;96883;-30
2022/10/27 08:16:12;;;;;;;6.97;1.63;;;;;;;15.03;84.26;102084.44;5012403;28;99407;-31
2022/10/27 08:18:37;;;;;;;5.35;1.77;;;;;;;15.06;84.15;102078.81;5012415;28;105883;-30
2022/10/27 08:21:04;;;;;;;6.13;1.88;;;;;;;15.13;82.57;102078.41;5012321;28;108681;-31
2022/10/27 08:23:29;;;;;;;3.58;1.60;;;;;;;15.19;82.69;102078.94;5011340;28;96838;-31
2022/10/27 08:25:54;;;;;;;3.70;1.67;;;;;;;15.23;82.52;102075.03;5012131;28;118668;-31
2022/10/27 08:28:20;;;;;;;2.15;1.25;;;;;;;15.33;82.17;102071.75;5012901;28;102606;-32
2022/10/27 08:30:45;;;;;;;3.60;1.25;;;;;;;15.37;81.86;102074.16;5012703;28;96992;-31
2022/10/27 08:33:10;;;;;;;2.03;0.88;;;;;;;15.45;81.96;102069.13;5012796;28;97243;-30
2022/10/27 08:35:36;;;;;;;3.00;0.98;;;;;;;15.50;81.98;102057.91;5011817;28;99467;-31
2022/10/27 08:38:06;;;;;;;1.98;0.85;;;;;;;15.54;81.54;102053.13;5011847;28;117439;-30
2022/10/27 08:40:40;;;;;;;2.85;1.27;;;;;;;15.56;81.93;102046.59;5011110;28;96700;-30
2022/10/27 08:43:41;;;;;;;2.53;1.20;;;;;;;15.57;81.03;102037.44;5011363;28;96839;-30
2022/10/27 08:46:26;;;;;;;1.50;0.93;;;;;;;15.61;81.01;102044.47;5010513;28;100884;-31
2022/10/27 08:49:01;;;;;;;1.33;0.75;;;;;;;15.63;81.05;102045.22;5011035;28;101100;-30
2022/10/27 08:51:31;;;;;;;6.90;0.93;;;;;;;15.68;80.67;102048.56;5010520;28;96951;-30
2022/10/27 08:53:57;;;;;;;2.47;0.98;;;;;;;15.68;80.11;102043.09;5011372;28;96810;-30
2022/10/27 08:56:26;;;;;;;1.25;0.77;;;;;;;15.71;80.20;102036.59;5012109;28;97393;-30
2022/10/27 08:58:51;;;;;;;3.70;1.35;;;;;;;15.71;79.98;102042.06;5012006;28;97379;-31
2022/10/27 09:01:39;;;;;;;1.85;0.90;;;;;;;15.78;79.68;102039.78;5011605;28;96498;-30
2022/10/27 09:04:18;;;;;;;3.08;0.90;;;;;;;15.76;78.62;102036.28;5010961;28;96847;-30
2022/10/27 09:06:57;;;;;;;1.58;0.85;;;;;;;15.78;79.80;102040.69;5012238;28;97566;-30
2022/10/27 09:09:34;;;;;;;6.88;1.10;;;;;;;15.82;79.41;102047.69;5010614;28;101007;-31
2022/10/27 09:12:22;;;;;;;1.63;0.73;;;;;;;15.87;79.44;102042.81;5012256;28;96523;-30
2022/10/27 09:15:08;;;;;;;1.40;0.68;;;;;;;15.89;79.25;102034.50;5011875;28;96867;-32
2022/10/27 09:18:03;;;;;;;1.30;0.93;;;;;;;15.97;79.39;102034.00;5010547;28;101253;-30
2022/10/27 09:20:56;;;;;;;1.83;0.73;;;;;;;16.05;77.96;102029.78;5005919;28;99217;-31
2022/10/27 09:23:33;;;;;;;1.95;0.90;;;;;;;16.16;78.23;102036.41;5005647;28;97037;-30
2022/10/27 09:25:58;;;;;;;4.72;0.88;;;;;;;16.23;78.00;102037.75;5010599;28;96821;-30
2022/10/27 09:28:33;;;;;;;4.28;1.10;;;;;;;16.33;77.22;102033.44;5011149;28;98775;-30
2022/10/27 09:31:01;;;;;;;9.88;0.95;;;;;;;16.47;77.75;102025.19;5010487;28;101014;-30
2022/10/27 09:33:31;;;;;;;1.98;1.20;;;;;;;16.55;76.91;102009.13;5010340;28;96575;-31
2022/10/27 09:35:56;;;;;;;4.07;0.93;;;;;;;16.60;77.25;102008.81;5011919;28;96864;-31
2022/10/27 09:38:24;;;;;;;6.40;1.10;;;;;;;16.64;76.54;102012.22;5011645;28;97385;-30
2022/10/27 09:40:51;;;;;;;2.35;0.65;;;;;;;16.71;76.62;101998.00;5011585;28;98416;-30
2022/10/27 09:43:19;;;;;;;2.80;0.68;;;;;;;16.81;76.59;101992.81;5011591;28;96490;-30
2022/10/27 09:45:44;;;;;;;3.05;1.00;;;;;;;16.88;76.21;101987.78;5010648;28;96818;-31
2022/10/27 09:48:19;;;;;;;1.95;0.90;;;;;;;16.87;76.12;101995.09;5011191;28;99358;-30
2022/10/27 09:51:15;;;;;;;2.67;1.15;;;;;;;16.84;76.34;101988.97;5009813;28;100783;-31
2022/10/27 09:53:46;;;;;;;1.60;0.63;;;;;;;16.83;76.65;101985.38;5002026;28;96962;-30
2022/10/27 09:56:23;;;;;;;1.87;0.87;;;;;;;16.83;76.60;101976.25;5011530;28;96769;-31
2022/10/27 09:58:56;;;;;;;3.25;1.23;;;;;;;16.82;76.16;101971.78;5012289;28;98830;-31
2022/10/27 10:01:23;;;;;;;4.18;1.00;;;;;;;16.80;75.70;101974.63;5014868;28;98768;-30
2022/10/27 10:04:04;;;;;;;3.42;1.00;;;;;;;16.86;76.45;101976.94;5013723;28;96709;-30
2022/10/27 10:06:36;;;;;;;1.90;1.05;;;;;;;16.87;75.84;101975.94;5013725;28;96754;-30
2022/10/27 10:09:36;;;;;;;3.05;1.33;;;;;;;16.88;75.90;101977.72;5013195;28;100882;-30
2022/10/27 10:12:20;;;;;;;2.05;1.13;;;;;;;16.93;76.62;101975.53;4970180;28;100724;-30
2022/10/27 10:14:45;;;;;;;2.60;1.15;;;;;;;16.88;75.71;101972.22;5013107;28;96762;-30
2022/10/27 10:17:27;;;;;;;2.92;0.90;;;;;;;16.94;76.21;101984.59;5014795;28;96799;-32
2022/10/27 10:19:56;;;;;;;3.33;1.40;;;;;;;16.93;75.81;101980.13;5012857;28;100774;-30
2022/10/27 10:22:25;;;;;;;3.90;0.88;;;;;;;16.91;76.47;101966.53;5014547;28;97183;-30
2022/10/27 10:24:52;;;;;;;4.88;1.02;;;;;;;16.96;76.50;101974.44;5013244;28;96684;-30
2022/10/27 10:27:30;;;;;;;4.40;1.20;;;;;;;16.96;75.49;101974.44;5013268;28;96814;-31
2022/10/27 10:29:58;;;;;;;5.60;1.02;;;;;;;17.02;75.70;101978.56;5014216;28;99829;-30
2022/10/27 10:32:27;;;;;;;3.22;1.00;;;;;;;17.03;76.02;101980.34;5013040;28;101046;-30
2022/10/27 10:34:53;;;;;;;2.60;0.98;;;;;;;17.06;75.90;101982.88;5013118;28;96640;-30
2022/10/27 10:37:54;;;;;;;5.65;1.98;;;;;;;17.10;75.65;101978.94;5014570;28;96830;-31
2022/10/27 10:40:27;;;;;;;1.98;1.05;;;;;;;17.11;74.92;101972.44;4952147;28;99375;-30
2022/10/27 10:43:10;;;;;;;5.07;0.90;;;;;;;17.16;75.52;101967.53;5003053;28;100960;-30
2022/10/27 10:45:37;;;;;;;2.83;0.90;;;;;;;17.22;75.46;101974.44;5012411;28;97283;-31
2022/10/27 10:48:15;;;;;;;2.65;0.98;;;;;;;17.31;75.32;101973.78;5012969;28;96970;-31
2022/10/27 10:50:46;;;;;;;9.48;0.98;;;;;;;17.41;75.45;101981.22;5012646;28;97552;-31
2022/10/27 10:53:27;;;;;;;4.03;1.00;;;;;;;17.45;75.31;101970.03;5013882;28;99662;-32
2022/10/27 10:55:55;;;;;;;2.95;1.10;;;;;;;17.45;75.35;101978.25;5012930;28;96692;-31
2022/10/27 10:58:24;;;;;;;1.60;0.98;;;;;;;17.40;75.45;101968.50;5012776;28;96865;-32
2022/10/27 11:00:55;;;;;;;5.72;1.33;;;;;;;17.38;75.43;101972.34;5014046;28;97475;-32
2022/10/27 11:03:23;;;;;;;2.00;1.02;;;;;;;17.34;75.29;101960.72;5012957;28;100756;-31
2022/10/27 11:05:55;;;;;;;1.20;0.70;;;;;;;17.32;75.90;101964.56;5012537;28;96619;-31
2022/10/27 11:08:33;;;;;;;5.68;1.20;;;;;;;17.33;76.02;101966.34;5012713;28;97161;-31
2022/10/27 11:10:59;;;;;;;2.38;1.20;;;;;;;17.33;76.00;101961.72;5011837;28;101064;-30
2022/10/27 11:13:34;;;;;;;2.92;1.13;;;;;;;17.32;75.29;101959.97;5012498;28;100794;-30
2022/10/27 11:16:05;;;;;;;5.72;0.95;;;;;;;17.34;75.69;101966.22;5013826;28;96526;-31
2022/10/27 11:18:40;;;;;;;3.17;1.40;;;;;;;17.34;75.83;101958.00;5013757;28;96586;-31
2022/10/27 11:21:17;;;;;;;2.10;1.13;;;;;;;17.34;76.00;101952.50;5012247;28;101400;-31
2022/10/27 11:23:48;;;;;;;3.38;1.00;;;;;;;17.33;75.82;101941.69;5012411;28;100809;-30
2022/10/27 11:26:18;;;;;;;5.53;1.23;;;;;;;17.31;76.19;101941.78;5013676;28;96604;-31
2022/10/27 11:29:00;;;;;;;2.10;1.27;;;;;;;17.32;76.02;101957.22;5012713;28;97021;-31
2022/10/27 11:31:31;;;;;;;4.07;1.10;;;;;;;17.28;76.23;101958.44;5012124;28;100913;-30